createdAt,value
2018-02-07T00:02:23.920Z,61.47
2018-02-07T00:04:51.406Z,63.92
2018-02-07T00:07:18.910Z,59.58
2018-02-07T00:09:46.411Z,60.78
2018-02-07T00:12:13.940Z,55.15
2018-02-07T00:14:41.426Z,59.38
2018-02-07T00:17:08.959Z,54.38
2018-02-07T00:19:36.449Z,53.85
2018-02-07T00:22:03.977Z,56.70
2018-02-07T00:24:31.472Z,62.13
2018-02-07T00:26:58.963Z,56.95
2018-02-07T00:29:26.609Z,55.83
2018-02-07T00:31:54.143Z,57.60
2018-02-07T00:34:21.742Z,67.78
2018-02-07T00:36:49.257Z,63.85
2018-02-07T00:39:16.746Z,64.00
2018-02-07T00:41:44.250Z,62.22
2018-02-07T00:44:11.852Z,68.95
2018-02-07T00:46:39.453Z,60.28
2018-02-07T00:49:07.057Z,60.63
2018-02-07T00:51:34.740Z,63.33
2018-02-07T00:54:02.279Z,61.58
2018-02-07T00:56:29.913Z,56.15
2018-02-07T00:58:57.472Z,58.70
2018-02-07T01:01:24.986Z,56.22
2018-02-07T01:03:52.460Z,54.97
2018-02-07T01:06:20.014Z,60.95
2018-02-07T01:08:47.570Z,57.75
2018-02-07T01:11:15.041Z,58.95
2018-02-07T01:13:42.573Z,53.92
2018-02-07T01:16:10.050Z,57.85
2018-02-07T01:18:37.591Z,61.50
2018-02-07T01:21:05.152Z,56.05
2018-02-07T01:23:32.669Z,60.67
2018-02-07T01:26:00.231Z,58.05
2018-02-07T01:28:27.732Z,55.58
2018-02-07T01:30:55.244Z,51.42
2018-02-07T01:33:22.722Z,53.78
2018-02-07T01:35:50.255Z,55.90
2018-02-07T01:38:17.724Z,52.40
2018-02-07T01:40:45.269Z,54.05
2018-02-07T01:43:12.756Z,49.83
2018-02-07T01:45:40.242Z,52.60
2018-02-07T01:48:07.761Z,51.80
2018-02-07T01:50:35.236Z,51.25
2018-02-07T01:53:02.812Z,49.83
2018-02-07T01:55:30.336Z,50.50
2018-02-07T01:57:57.849Z,49.75
2018-02-07T02:00:25.326Z,57.30
2018-02-07T02:02:52.867Z,55.72
2018-02-07T02:05:20.605Z,48.75
2018-02-07T02:07:48.099Z,48.75
2018-02-07T02:10:15.687Z,52.67
2018-02-07T02:12:43.282Z,52.13
2018-02-07T02:15:10.777Z,52.35
2018-02-07T02:17:38.281Z,56.22
2018-02-07T02:20:05.787Z,49.33
2018-02-07T02:22:33.272Z,54.90
2018-02-07T02:25:00.786Z,48.95
2018-02-07T02:27:28.302Z,50.38
2018-02-07T02:29:55.791Z,49.65
2018-02-07T02:32:23.305Z,53.20
2018-02-07T02:34:50.806Z,46.60
2018-02-07T02:37:18.383Z,49.00
2018-02-07T02:39:45.888Z,45.83
2018-02-07T02:42:13.369Z,49.33
2018-02-07T02:44:40.871Z,51.05
2018-02-07T02:47:08.351Z,51.97
2018-02-07T02:49:35.869Z,50.67
2018-02-07T02:52:04.069Z,50.40
2018-02-07T02:54:31.566Z,51.25
2018-02-07T02:56:59.124Z,43.63
2018-02-07T02:59:26.613Z,44.35
2018-02-07T03:01:54.347Z,47.80
2018-02-07T03:04:21.858Z,51.40
2018-02-07T03:06:49.388Z,49.03
2018-02-07T03:09:16.865Z,49.35
2018-02-07T03:11:44.371Z,50.83
2018-02-07T03:14:11.863Z,47.95
2018-02-07T03:16:39.348Z,47.65
2018-02-07T03:19:06.842Z,45.63
2018-02-07T03:21:34.314Z,45.38
2018-02-07T03:24:01.850Z,45.40
2018-02-07T03:26:29.357Z,46.40
2018-02-07T03:28:56.837Z,41.78
2018-02-07T03:31:24.351Z,49.58
2018-02-07T03:33:51.833Z,49.72
2018-02-07T03:36:19.345Z,46.50
2018-02-07T03:38:47.595Z,50.28
2018-02-07T03:41:15.080Z,50.20
2018-02-07T03:43:42.613Z,47.97
2018-02-07T03:46:10.134Z,60.38
2018-02-07T03:48:37.653Z,52.25
2018-02-07T03:51:05.148Z,52.60
2018-02-07T03:53:32.738Z,46.08
2018-02-07T03:56:00.294Z,50.65
2018-02-07T03:58:27.813Z,52.20
2018-02-07T04:00:55.337Z,48.75
2018-02-07T04:03:22.974Z,54.30
2018-02-07T04:05:50.499Z,43.97
2018-02-07T04:08:17.980Z,48.70
2018-02-07T04:10:45.585Z,48.10
2018-02-07T04:13:13.136Z,46.90
2018-02-07T04:15:40.612Z,49.90
2018-02-07T04:18:08.089Z,41.05
2018-02-07T04:20:35.590Z,52.75
2018-02-07T04:23:03.149Z,48.67
2018-02-07T04:25:30.628Z,41.60
2018-02-07T04:27:58.124Z,45.97
2018-02-07T04:30:25.687Z,48.87
2018-02-07T04:32:53.203Z,51.40
2018-02-07T04:35:20.715Z,53.15
2018-02-07T04:37:48.206Z,52.85
2018-02-07T04:40:15.726Z,56.45
2018-02-07T04:42:43.220Z,51.35
2018-02-07T04:45:10.741Z,48.92
2018-02-07T04:47:38.222Z,46.58
2018-02-07T04:50:05.699Z,51.90
2018-02-07T04:52:33.196Z,50.47
2018-02-07T04:55:00.694Z,53.17
2018-02-07T04:57:28.217Z,54.38
2018-02-07T04:59:55.707Z,52.47
2018-02-07T05:02:23.291Z,50.15
2018-02-07T05:04:50.774Z,51.78
2018-02-07T05:07:18.401Z,46.67
2018-02-07T05:09:46.136Z,59.38
2018-02-07T05:12:13.762Z,49.83
2018-02-07T05:14:41.263Z,52.50
2018-02-07T05:17:08.784Z,49.88
2018-02-07T05:19:36.659Z,59.28
2018-02-07T05:22:04.926Z,58.67
2018-02-07T05:24:32.506Z,56.67
2018-02-07T05:27:00.236Z,55.28
2018-02-07T05:29:27.784Z,57.67
2018-02-07T05:31:55.320Z,59.90
2018-02-07T05:34:22.927Z,58.55
2018-02-07T05:36:50.512Z,58.05
2018-02-07T05:39:18.030Z,63.05
2018-02-07T05:41:45.518Z,57.65
2018-02-07T05:44:13.032Z,59.40
2018-02-07T05:46:40.534Z,60.03
2018-02-07T05:49:08.040Z,58.65
2018-02-07T05:51:35.551Z,52.97
2018-02-07T05:54:03.056Z,55.63
2018-02-07T05:56:30.549Z,60.05
2018-02-07T05:58:58.047Z,55.78
2018-02-07T06:01:24.964Z,56.88
2018-02-07T06:03:52.469Z,56.42
2018-02-07T06:06:19.966Z,56.40
2018-02-07T06:08:47.471Z,59.80
2018-02-07T06:11:14.980Z,52.15
2018-02-07T06:13:43.213Z,56.00
2018-02-07T06:16:10.726Z,53.28
2018-02-07T06:18:38.240Z,55.80
2018-02-07T06:21:05.721Z,54.35
2018-02-07T06:23:33.222Z,55.85
2018-02-07T06:26:00.703Z,53.08
2018-02-07T06:28:28.245Z,52.13
2018-02-07T06:30:55.785Z,53.00
2018-02-07T06:33:22.562Z,54.22
2018-02-07T06:35:50.151Z,53.97
2018-02-07T06:38:17.645Z,49.38
2018-02-07T06:40:45.722Z,52.95
2018-02-07T06:43:13.218Z,56.53
2018-02-07T06:45:40.036Z,51.80
2018-02-07T06:48:07.521Z,52.05
2018-02-07T06:50:35.642Z,51.35
2018-02-07T06:53:03.148Z,47.75
2018-02-07T06:55:30.690Z,51.97
2018-02-07T06:57:58.239Z,54.40
2018-02-07T07:00:25.767Z,49.42
2018-02-07T07:02:53.368Z,45.65
2018-02-07T07:05:20.916Z,47.30
2018-02-07T07:07:48.414Z,52.25
2018-02-07T07:10:15.939Z,55.75
2018-02-07T07:12:43.435Z,52.88
2018-02-07T07:15:10.957Z,52.53
2018-02-07T07:17:38.438Z,63.42
2018-02-07T07:20:05.953Z,51.90
2018-02-07T07:22:33.449Z,51.03
2018-02-07T07:25:00.930Z,58.38
2018-02-07T07:27:28.459Z,54.38
2018-02-07T07:29:55.948Z,65.47
2018-02-07T07:32:23.565Z,52.03
2018-02-07T07:34:51.098Z,54.75
2018-02-07T07:37:18.604Z,56.25
2018-02-07T07:39:46.101Z,51.75
2018-02-07T07:42:13.687Z,52.45
2018-02-07T07:44:41.204Z,52.08
2018-02-07T07:47:09.295Z,59.55
2018-02-07T07:49:36.825Z,55.00
2018-02-07T07:52:04.779Z,51.35
2018-02-07T07:54:32.262Z,56.97
2018-02-07T07:56:59.795Z,51.25
2018-02-07T07:59:27.310Z,52.55
2018-02-07T08:01:54.824Z,56.35
2018-02-07T08:04:22.368Z,55.42
2018-02-07T08:06:49.910Z,52.05
2018-02-07T08:09:17.470Z,55.03
2018-02-07T08:11:44.972Z,60.10
2018-02-07T08:14:12.588Z,55.85
2018-02-07T08:16:40.074Z,56.30
2018-02-07T08:19:07.591Z,46.75
2018-02-07T08:21:35.083Z,57.05
2018-02-07T08:24:02.629Z,51.60
2018-02-07T08:26:30.130Z,55.97
2018-02-07T08:28:57.655Z,51.72
2018-02-07T08:31:25.184Z,56.35
2018-02-07T08:33:52.729Z,54.60
2018-02-07T08:36:20.232Z,50.08
2018-02-07T08:38:48.575Z,51.95
2018-02-07T08:41:16.116Z,51.53
2018-02-07T08:43:43.675Z,54.65
2018-02-07T08:46:11.182Z,55.10
2018-02-07T08:48:38.669Z,52.20
2018-02-07T08:51:06.234Z,53.10
2018-02-07T08:53:33.747Z,53.50
2018-02-07T08:56:01.320Z,47.60
2018-02-07T08:58:28.856Z,60.08
2018-02-07T09:00:56.399Z,53.08
2018-02-07T09:03:23.891Z,57.38
2018-02-07T09:05:51.375Z,60.92
2018-02-07T09:08:18.890Z,54.75
2018-02-07T09:10:46.402Z,58.67
2018-02-07T09:13:14.016Z,56.08
2018-02-07T09:15:41.534Z,55.30
2018-02-07T09:18:09.123Z,51.03
2018-02-07T09:20:36.711Z,55.47
2018-02-07T09:23:04.305Z,56.97
2018-02-07T09:25:31.851Z,62.38
2018-02-07T09:27:59.462Z,55.28
2018-02-07T09:30:27.096Z,58.67
2018-02-07T09:32:54.669Z,49.45
2018-02-07T09:35:22.234Z,54.58
2018-02-07T09:37:49.740Z,55.80
2018-02-07T09:40:17.295Z,53.25
2018-02-07T09:42:44.782Z,56.03
2018-02-07T09:45:13.034Z,61.47
2018-02-07T09:47:40.580Z,52.53
2018-02-07T09:50:08.126Z,56.08
2018-02-07T09:52:35.686Z,53.53
2018-02-07T09:55:03.181Z,56.37
2018-02-07T09:57:30.732Z,53.75
2018-02-07T09:59:58.231Z,52.88
2018-02-07T10:02:25.804Z,64.10
2018-02-07T10:04:53.719Z,67.20
2018-02-07T10:07:21.216Z,58.42
2018-02-07T10:09:48.727Z,56.95
2018-02-07T10:12:16.206Z,58.28
2018-02-07T10:14:43.723Z,60.95
2018-02-07T10:17:11.219Z,55.97
2018-02-07T10:19:38.768Z,61.72
2018-02-07T10:22:06.272Z,61.83
2018-02-07T10:24:33.796Z,67.30
2018-02-07T10:27:02.050Z,56.75
2018-02-07T10:29:29.575Z,56.40
2018-02-07T10:31:57.148Z,60.50
2018-02-07T10:34:24.626Z,61.40
2018-02-07T10:36:52.271Z,61.22
2018-02-07T10:39:19.778Z,60.88
2018-02-07T10:41:47.303Z,60.58
2018-02-07T10:44:14.791Z,63.70
2018-02-07T10:46:42.440Z,59.55
2018-02-07T10:49:09.978Z,59.60
2018-02-07T10:51:37.491Z,65.03
2018-02-07T10:54:05.003Z,60.30
2018-02-07T10:56:32.504Z,61.55
2018-02-07T10:59:00.022Z,66.53
2018-02-07T11:01:27.527Z,67.40
2018-02-07T11:03:55.036Z,61.33
2018-02-07T11:06:22.558Z,68.73
2018-02-07T11:08:50.050Z,83.72
2018-02-07T11:11:17.562Z,69.62
2018-02-07T11:13:45.065Z,67.05
2018-02-07T11:16:12.550Z,64.12
2018-02-07T11:18:40.078Z,63.15
2018-02-07T11:21:07.579Z,72.80
2018-02-07T11:23:35.065Z,72.22
2018-02-07T11:26:02.575Z,69.68
2018-02-07T11:28:30.099Z,75.47
2018-02-07T11:30:57.633Z,72.40
2018-02-07T11:33:25.140Z,70.18
2018-02-07T11:35:53.236Z,75.35
2018-02-07T11:38:20.731Z,70.18
2018-02-07T11:40:48.248Z,70.40
2018-02-07T11:43:15.879Z,76.43
2018-02-07T11:45:43.507Z,78.10
2018-02-07T11:48:11.165Z,77.40
2018-02-07T11:50:38.665Z,77.22
2018-02-07T11:53:06.202Z,83.75
2018-02-07T11:55:33.699Z,69.53
2018-02-07T11:58:01.209Z,72.10
2018-02-07T12:00:28.815Z,65.60
2018-02-07T12:02:56.313Z,70.72
2018-02-07T12:05:23.903Z,68.45
2018-02-07T12:07:51.925Z,67.50
2018-02-07T12:10:19.510Z,60.85
2018-02-07T12:12:47.012Z,67.35
2018-02-07T12:15:14.569Z,65.93
2018-02-07T12:17:42.210Z,67.95
2018-02-07T12:20:09.747Z,63.90
2018-02-07T12:22:37.406Z,65.30
2018-02-07T12:25:05.074Z,68.65
2018-02-07T12:27:32.562Z,72.03
2018-02-07T12:30:00.077Z,65.97
2018-02-07T12:32:27.674Z,62.67
2018-02-07T12:34:55.186Z,69.35
2018-02-07T12:37:22.767Z,70.65
2018-02-07T12:39:51.176Z,66.37
2018-02-07T12:42:18.710Z,80.65
2018-02-07T12:44:46.194Z,64.20
2018-02-07T12:47:13.728Z,71.93
2018-02-07T12:49:41.239Z,62.30
2018-02-07T12:52:08.734Z,65.80
2018-02-07T12:54:36.256Z,71.15
2018-02-07T12:57:03.761Z,67.82
2018-02-07T12:59:31.311Z,66.45
2018-02-07T13:01:58.917Z,64.80
2018-02-07T13:04:26.432Z,68.70
2018-02-07T13:06:53.989Z,65.43
2018-02-07T13:09:21.529Z,66.72
2018-02-07T13:11:49.061Z,67.78
2018-02-07T13:14:16.596Z,69.78
2018-02-07T13:16:44.117Z,66.32
2018-02-07T13:19:11.610Z,68.85
2018-02-07T13:21:39.100Z,66.00
2018-02-07T13:24:06.621Z,67.80
2018-02-07T13:26:34.107Z,75.00
2018-02-07T13:29:01.624Z,66.05
2018-02-07T13:31:29.171Z,71.25
2018-02-07T13:33:56.699Z,65.80
2018-02-07T13:36:24.208Z,68.62
2018-02-07T13:38:51.696Z,71.82
2018-02-07T13:41:19.414Z,70.45
2018-02-07T13:43:46.928Z,75.47
2018-02-07T13:46:14.596Z,72.70
2018-02-07T13:48:42.221Z,75.43
2018-02-07T13:51:09.813Z,75.22
2018-02-07T13:53:37.443Z,71.30
2018-02-07T13:56:05.027Z,65.62
2018-02-07T13:58:32.585Z,72.30
2018-02-07T14:01:00.122Z,68.05
2018-02-07T14:03:27.684Z,75.70
2018-02-07T14:05:55.177Z,71.43
2018-02-07T14:08:22.710Z,69.22
2018-02-07T14:10:51.792Z,69.97
2018-02-07T14:13:19.370Z,67.37
2018-02-07T14:15:46.968Z,69.10
2018-02-07T14:18:14.498Z,74.90
2018-02-07T14:20:41.991Z,72.85
2018-02-07T14:23:09.533Z,71.80
2018-02-07T14:25:37.077Z,81.37
2018-02-07T14:28:04.602Z,76.75
2018-02-07T14:30:32.109Z,74.68
2018-02-07T14:33:00.209Z,91.70
2018-02-07T14:35:27.770Z,73.12
2018-02-07T14:37:55.263Z,74.32
2018-02-07T14:40:22.855Z,72.97
2018-02-07T14:42:50.342Z,79.35
2018-02-07T14:45:17.949Z,77.22
2018-02-07T14:47:45.600Z,74.90
2018-02-07T14:50:13.091Z,78.12
2018-02-07T14:52:40.674Z,66.47
2018-02-07T14:55:08.176Z,73.68
2018-02-07T14:57:35.681Z,69.12
2018-02-07T15:00:03.200Z,70.53
2018-02-07T15:02:30.754Z,66.47
2018-02-07T15:04:58.317Z,68.12
2018-02-07T15:07:25.832Z,69.95
2018-02-07T15:09:53.445Z,71.05
2018-02-07T15:12:20.970Z,70.15
2018-02-07T15:14:48.481Z,70.03
2018-02-07T15:17:15.988Z,70.03
2018-02-07T15:19:43.559Z,68.60
2018-02-07T15:22:11.102Z,74.62
2018-02-07T15:24:38.619Z,73.10
2018-02-07T15:27:06.110Z,73.35
2018-02-07T15:29:33.728Z,72.72
2018-02-07T15:32:01.218Z,64.37
2018-02-07T15:34:28.734Z,70.55
2018-02-07T15:36:56.252Z,65.65
2018-02-07T15:39:23.885Z,68.22
2018-02-07T15:41:51.586Z,68.90
2018-02-07T15:44:19.111Z,65.40
2018-02-07T15:46:47.567Z,59.25
2018-02-07T15:49:15.049Z,66.32
2018-02-07T15:51:42.774Z,59.83
2018-02-07T15:54:10.435Z,55.90
2018-02-07T15:56:37.981Z,59.97
2018-02-07T15:59:05.618Z,61.35
2018-02-07T16:01:33.185Z,56.33
2018-02-07T16:04:00.720Z,59.90
2018-02-07T16:06:28.334Z,63.97
2018-02-07T16:08:55.947Z,55.10
2018-02-07T16:11:23.615Z,59.35
2018-02-07T16:13:51.160Z,56.88
2018-02-07T16:16:18.762Z,55.88
2018-02-07T16:18:46.303Z,55.40
2018-02-07T16:21:13.819Z,56.40
2018-02-07T16:23:41.329Z,57.20
2018-02-07T16:26:08.933Z,56.37
2018-02-07T16:28:36.503Z,50.67
2018-02-07T16:31:04.012Z,55.20
2018-02-07T16:33:31.550Z,56.50
2018-02-07T16:35:59.060Z,63.58
2018-02-07T16:38:26.596Z,55.35
2018-02-07T16:40:54.090Z,54.00
2018-02-07T16:43:21.614Z,71.78
2018-02-07T16:45:49.183Z,91.05
2018-02-07T16:48:16.720Z,69.47
2018-02-07T16:50:44.206Z,89.00
2018-02-07T16:53:11.748Z,107.32
2018-02-07T16:55:39.263Z,80.18
2018-02-07T16:58:06.778Z,129.32
2018-02-07T17:00:34.418Z,78.12
2018-02-07T17:03:01.948Z,58.08
2018-02-07T17:05:29.473Z,56.95
2018-02-07T17:07:56.971Z,56.08
2018-02-07T17:10:24.536Z,60.35
2018-02-07T17:12:52.105Z,59.00
2018-02-07T17:15:19.593Z,56.50
2018-02-07T17:17:47.140Z,56.65
2018-02-07T17:20:14.627Z,58.25
2018-02-07T17:22:42.265Z,62.30
2018-02-07T17:25:10.372Z,57.22
2018-02-07T17:27:37.878Z,66.30
2018-02-07T17:30:05.510Z,58.72
2018-02-07T17:32:33.014Z,59.40
2018-02-07T17:35:00.610Z,61.63
2018-02-07T17:37:28.132Z,59.20
2018-02-07T17:39:55.798Z,65.20
2018-02-07T17:42:23.411Z,62.08
2018-02-07T17:44:50.927Z,60.72
2018-02-07T17:47:18.439Z,62.10
2018-02-07T17:49:45.957Z,65.78
2018-02-07T17:52:13.499Z,61.92
2018-02-07T17:54:41.061Z,59.05
2018-02-07T17:57:08.582Z,63.13
2018-02-07T17:59:36.070Z,57.50
2018-02-07T18:02:03.959Z,59.53
2018-02-07T18:04:31.484Z,60.80
2018-02-07T18:06:59.027Z,60.72
2018-02-07T18:09:26.580Z,63.55
2018-02-07T18:11:54.135Z,67.25
2018-02-07T18:14:21.649Z,58.33
2018-02-07T18:16:49.200Z,68.43
2018-02-07T18:19:16.715Z,61.83
2018-02-07T18:21:44.231Z,58.00
2018-02-07T18:24:11.728Z,61.10
2018-02-07T18:26:39.237Z,59.05
2018-02-07T18:29:06.756Z,60.63
2018-02-07T18:31:34.252Z,67.70
2018-02-07T18:34:01.847Z,64.07
2018-02-07T18:36:29.408Z,58.90
2018-02-07T18:38:56.988Z,58.35
2018-02-07T18:41:24.516Z,66.10
2018-02-07T18:43:52.015Z,66.25
2018-02-07T18:46:19.561Z,66.68
2018-02-07T18:48:47.086Z,61.65
2018-02-07T18:51:14.637Z,62.17
2018-02-07T18:53:42.155Z,62.40
2018-02-07T18:56:09.673Z,62.80
2018-02-07T18:58:37.171Z,67.68
2018-02-07T19:01:04.709Z,59.60
2018-02-07T19:03:32.252Z,65.40
2018-02-07T19:06:00.198Z,66.07
2018-02-07T19:08:27.764Z,61.65
2018-02-07T19:10:55.783Z,60.33
2018-02-07T19:13:23.688Z,65.32
2018-02-07T19:15:51.207Z,66.22
2018-02-07T19:18:18.745Z,55.72
2018-02-07T19:20:46.652Z,61.00
2018-02-07T19:23:14.233Z,58.00
2018-02-07T19:25:41.786Z,61.33
2018-02-07T19:28:09.326Z,66.65
2018-02-07T19:30:37.545Z,72.90
2018-02-07T19:33:05.060Z,64.95
2018-02-07T19:35:32.623Z,68.00
2018-02-07T19:38:00.188Z,65.72
2018-02-07T19:40:27.741Z,66.20
2018-02-07T19:42:58.147Z,55.72
2018-02-07T19:45:32.510Z,64.60
2018-02-07T19:48:00.213Z,67.00
2018-02-07T19:50:27.863Z,65.15
2018-02-07T19:52:55.418Z,66.87
2018-02-07T19:55:22.952Z,64.97
2018-02-07T19:57:50.516Z,64.55
2018-02-07T20:00:18.015Z,66.53
2018-02-07T20:02:45.882Z,65.53
2018-02-07T20:05:13.833Z,56.83
2018-02-07T20:07:41.338Z,67.93
2018-02-07T20:10:09.073Z,63.17
2018-02-07T20:12:36.636Z,63.67
2018-02-07T20:15:04.172Z,61.28
2018-02-07T20:17:31.694Z,61.40
2018-02-07T20:19:59.216Z,55.80
2018-02-07T20:22:26.756Z,68.22
2018-02-07T20:24:54.259Z,60.88
2018-02-07T20:27:21.857Z,63.28
2018-02-07T20:29:50.228Z,59.17
2018-02-07T20:32:17.802Z,60.05
2018-02-07T20:34:45.449Z,65.80
2018-02-07T20:37:13.001Z,72.95
2018-02-07T20:39:40.588Z,65.28
2018-02-07T20:42:08.218Z,65.30
2018-02-07T20:44:35.732Z,57.83
2018-02-07T20:47:03.229Z,61.67
2018-02-07T20:49:30.749Z,62.40
2018-02-07T20:51:58.236Z,66.53
2018-02-07T20:54:25.775Z,62.10
2018-02-07T20:56:53.317Z,63.42
2018-02-07T20:59:20.861Z,63.33
2018-02-07T21:01:48.376Z,68.80
2018-02-07T21:04:15.975Z,59.85
2018-02-07T21:06:43.520Z,65.10
2018-02-07T21:09:11.033Z,60.72
2018-02-07T21:11:38.576Z,57.38
2018-02-07T21:14:06.170Z,65.60
2018-02-07T21:16:33.670Z,61.65
2018-02-07T21:19:01.203Z,66.40
2018-02-07T21:21:28.701Z,61.97
2018-02-07T21:23:56.229Z,57.47
2018-02-07T21:26:23.834Z,63.75
2018-02-07T21:28:51.398Z,58.15
2018-02-07T21:31:18.990Z,67.22
2018-02-07T21:33:46.561Z,62.28
2018-02-07T21:36:14.216Z,68.68
2018-02-07T21:38:41.776Z,61.60
2018-02-07T21:41:09.349Z,59.67
2018-02-07T21:43:36.834Z,57.10
2018-02-07T21:46:04.322Z,62.42
2018-02-07T21:48:31.833Z,65.72
2018-02-07T21:50:59.341Z,57.83
2018-02-07T21:53:26.879Z,60.75
2018-02-07T21:55:54.364Z,57.50
2018-02-07T21:58:21.875Z,66.47
2018-02-07T22:00:49.367Z,60.50
2018-02-07T22:03:16.877Z,56.65
2018-02-07T22:05:44.375Z,57.72
2018-02-07T22:08:11.864Z,58.33
2018-02-07T22:10:39.388Z,60.05
2018-02-07T22:13:06.911Z,65.72
2018-02-07T22:15:34.424Z,64.50
2018-02-07T22:18:01.937Z,62.55
2018-02-07T22:20:29.464Z,60.85
2018-02-07T22:22:57.697Z,62.50
2018-02-07T22:25:25.205Z,64.22
2018-02-07T22:27:52.715Z,64.68
2018-02-07T22:30:20.340Z,66.72
2018-02-07T22:32:48.256Z,62.58
2018-02-07T22:35:15.791Z,64.00
2018-02-07T22:37:43.276Z,57.33
2018-02-07T22:40:10.800Z,59.15
2018-02-07T22:42:38.341Z,66.50
2018-02-07T22:45:05.883Z,61.97
2018-02-07T22:47:33.395Z,72.43
2018-02-07T22:50:00.889Z,80.53
2018-02-07T22:52:28.494Z,66.28
2018-02-07T22:54:55.967Z,62.97
2018-02-07T22:57:23.651Z,65.10
2018-02-07T22:59:51.186Z,62.03
2018-02-07T23:02:18.848Z,56.20
2018-02-07T23:04:46.471Z,64.80
2018-02-07T23:07:14.089Z,55.95
2018-02-07T23:09:41.605Z,57.45
2018-02-07T23:12:09.314Z,66.05
2018-02-07T23:14:36.820Z,64.37
2018-02-07T23:17:04.314Z,58.80
2018-02-07T23:19:31.817Z,63.05
2018-02-07T23:21:59.662Z,62.53
2018-02-07T23:24:27.213Z,65.18
2018-02-07T23:26:54.801Z,60.75
2018-02-07T23:29:22.319Z,61.78
2018-02-07T23:31:49.807Z,61.47
2018-02-07T23:34:17.418Z,59.33
2018-02-07T23:36:45.152Z,58.22
2018-02-07T23:39:12.667Z,61.35
2018-02-07T23:41:40.312Z,55.50
2018-02-07T23:44:07.857Z,61.45
2018-02-07T23:46:35.482Z,62.80
2018-02-07T23:49:03.008Z,60.00
2018-02-07T23:51:30.641Z,55.20
2018-02-07T23:53:58.162Z,65.03
2018-02-07T23:56:25.699Z,55.40
2018-02-07T23:58:53.258Z,57.78
